Kirksville Regional Airport Kirksville US
ICAO: KIRK
IATA: IRK
Category: Medium
Scheduled Services: Yes

Elevation: 966 ft
TransAlt. 18000 ft.

Airport Communications:
ASOS:121.125
KANSAS CITY CNTR:132.6
COLUMBIA RDO:122.2
CTAF/UNICOM:122.8

KIRK Zoom In..

If you have problems with the map follow the link
https://www.worldairports.se/pages/airport.php?
ICAO=KIRK

Runways:

(A) RW 09 length 1370 ft width 100 ft
---- / hdg 88

(B) RW 18 length 6005 ft width 100 ft
---- / hdg 177

(C) RW 27 length 1370 ft width 100 ft
---- / hdg 268

(D) RW 36 length 6005 ft width 100 ft
ILS 111.50 / hdg 357

Location; KIRK
Day. 08 / Time. 05.55 Zulu
* Altimeter: 30.04
* Temperature: 03° c. 37.4°f.
* Wind from: 190° Speed 10 kn with Gusts up to 16 kn.
Dewpoint: -03° c.
Visibility: 10 Statute Miles.
Clouds: Clear (automated report).

KIRK 080555Z AUTO 19010G16KT 10SM CLR 03/M03 A3004 RMK AO2 SLP181 T00281033 10028 21011 400781061 56020


Wind From 190°
Speed 10 kn.

 
 
jpsmedia worldairports.se 2019   terms of use